createdAt,value
2019-05-25T00:00:13.861Z,60.68
2019-05-25T00:02:51.466Z,59.95
2019-05-25T00:05:28.905Z,60.12
2019-05-25T00:08:07.077Z,58.84
2019-05-25T00:10:44.489Z,60.00
2019-05-25T00:13:22.410Z,60.20
2019-05-25T00:15:59.494Z,59.85
2019-05-25T00:18:38.067Z,58.77
2019-05-25T00:21:15.581Z,58.14
2019-05-25T00:23:53.240Z,59.37
2019-05-25T00:26:31.901Z,58.22
2019-05-25T00:29:09.949Z,57.96
2019-05-25T00:31:47.329Z,56.90
2019-05-25T00:34:24.973Z,57.51
2019-05-25T00:37:02.639Z,57.61
2019-05-25T00:39:40.872Z,57.24
2019-05-25T00:42:18.537Z,57.15
2019-05-25T00:44:55.916Z,56.46
2019-05-25T00:47:33.525Z,55.52
2019-05-25T00:50:12.325Z,54.92
2019-05-25T00:52:49.715Z,55.83
2019-05-25T00:55:27.559Z,55.89
2019-05-25T00:58:05.700Z,54.30
2019-05-25T01:00:43.470Z,54.55
2019-05-25T01:03:20.911Z,54.40
2019-05-25T01:05:58.624Z,53.17
2019-05-25T01:08:36.588Z,52.27
2019-05-25T01:11:14.494Z,52.70
2019-05-25T01:13:51.681Z,53.04
2019-05-25T01:16:29.330Z,51.96
2019-05-25T01:19:08.293Z,53.90
2019-05-25T01:21:46.428Z,54.49
2019-05-25T01:24:23.869Z,54.27
2019-05-25T01:27:02.078Z,53.71
2019-05-25T01:29:40.843Z,51.18
2019-05-25T01:32:19.396Z,52.06
2019-05-25T01:34:57.016Z,51.64
2019-05-25T01:37:34.624Z,51.29
2019-05-25T01:40:12.346Z,50.30
2019-05-25T01:42:51.808Z,49.85
2019-05-25T01:45:29.307Z,51.36
2019-05-25T01:48:07.040Z,50.62
2019-05-25T01:50:44.094Z,51.43
2019-05-25T01:53:23.243Z,51.30
2019-05-25T01:56:00.608Z,49.61
2019-05-25T01:58:38.636Z,50.04
2019-05-25T02:01:18.216Z,50.33
2019-05-25T02:03:56.388Z,49.49
2019-05-25T02:06:33.772Z,49.10
2019-05-25T02:09:12.374Z,48.83
2019-05-25T02:11:50.303Z,49.79
2019-05-25T02:14:28.673Z,48.91
2019-05-25T02:17:06.132Z,49.40
2019-05-25T02:19:44.277Z,50.25
2019-05-25T02:22:21.479Z,49.72
2019-05-25T02:25:14.473Z,49.30
2019-05-25T02:27:39.475Z,48.16
2019-05-25T02:30:17.370Z,48.88
2019-05-25T02:32:56.220Z,49.04
2019-05-25T02:35:34.074Z,48.80
2019-05-25T02:38:11.331Z,48.88
2019-05-25T02:40:48.988Z,48.35
2019-05-25T02:43:27.080Z,49.54
2019-05-25T02:46:04.945Z,48.99
2019-05-25T02:48:42.489Z,49.39
2019-05-25T02:51:20.104Z,48.27
2019-05-25T02:53:58.457Z,48.19
2019-05-25T02:56:36.920Z,47.02
2019-05-25T02:59:14.141Z,47.32
2019-05-25T03:01:51.733Z,46.60
2019-05-25T03:04:29.673Z,46.63
2019-05-25T03:07:07.917Z,46.35
2019-05-25T03:09:45.354Z,46.93
2019-05-25T03:12:22.829Z,46.36
2019-05-25T03:14:59.769Z,47.20
2019-05-25T03:17:37.911Z,47.59
2019-05-25T03:20:15.669Z,48.24
2019-05-25T03:22:53.855Z,46.66
2019-05-25T03:25:31.356Z,47.07
2019-05-25T03:28:09.471Z,46.10
2019-05-25T03:30:47.018Z,45.74
2019-05-25T03:33:24.565Z,44.62
2019-05-25T03:36:02.557Z,43.85
2019-05-25T03:38:41.004Z,44.69
2019-05-25T03:41:18.176Z,45.55
2019-05-25T03:43:56.188Z,46.21
2019-05-25T03:46:33.293Z,45.81
2019-05-25T03:49:11.459Z,45.33
2019-05-25T03:51:48.623Z,47.27
2019-05-25T03:54:26.164Z,47.55
2019-05-25T03:57:03.410Z,47.11
2019-05-25T03:59:41.748Z,46.60
2019-05-25T04:02:18.795Z,47.72
2019-05-25T04:04:56.162Z,47.30
2019-05-25T04:07:34.751Z,46.79
2019-05-25T04:10:12.869Z,45.97
2019-05-25T04:12:50.331Z,46.13
2019-05-25T04:15:28.117Z,47.40
2019-05-25T04:18:05.660Z,45.86
2019-05-25T04:20:43.316Z,45.27
2019-05-25T04:23:20.790Z,44.98
2019-05-25T04:25:58.775Z,45.51
2019-05-25T04:28:37.391Z,44.21
2019-05-25T04:31:16.426Z,45.19
2019-05-25T04:33:53.696Z,43.26
2019-05-25T04:36:30.889Z,43.24
2019-05-25T04:39:10.531Z,46.78
2019-05-25T04:41:48.558Z,46.31
2019-05-25T04:44:25.990Z,46.68
2019-05-25T04:47:03.283Z,47.89
2019-05-25T04:49:40.845Z,46.90
2019-05-25T04:52:18.972Z,44.22
2019-05-25T04:54:56.266Z,44.31
2019-05-25T04:57:33.651Z,43.14
2019-05-25T05:00:11.099Z,43.72
2019-05-25T05:02:49.342Z,44.82
2019-05-25T05:05:27.270Z,45.15
2019-05-25T05:08:04.900Z,44.19
2019-05-25T05:10:43.202Z,44.40
2019-05-25T05:13:21.121Z,44.77
2019-05-25T05:15:58.144Z,44.68
2019-05-25T05:18:36.022Z,47.49
2019-05-25T05:21:18.879Z,48.94
2019-05-25T05:23:57.197Z,48.86
2019-05-25T05:26:34.394Z,49.38
2019-05-25T05:29:11.853Z,49.35
2019-05-25T05:31:48.927Z,49.82
2019-05-25T05:34:27.226Z,48.88
2019-05-25T05:37:05.482Z,48.95
2019-05-25T05:39:45.321Z,50.12
2019-05-25T05:42:24.761Z,49.86
2019-05-25T05:45:04.629Z,50.62
2019-05-25T05:47:42.651Z,50.52
2019-05-25T05:50:20.956Z,50.04
2019-05-25T05:52:58.564Z,48.87
2019-05-25T05:55:37.622Z,48.84
2019-05-25T05:58:15.208Z,49.42
2019-05-25T06:00:54.580Z,50.15
2019-05-25T06:03:31.803Z,50.75
2019-05-25T06:06:10.025Z,50.47
2019-05-25T06:08:47.860Z,51.15
2019-05-25T06:11:25.395Z,50.24
2019-05-25T06:14:03.821Z,50.67
2019-05-25T06:16:41.970Z,50.63
2019-05-25T06:19:19.646Z,50.90
2019-05-25T06:21:57.247Z,49.79
2019-05-25T06:24:34.604Z,49.85
2019-05-25T06:27:26.445Z,50.16
2019-05-25T06:29:51.374Z,51.37
2019-05-25T06:32:29.186Z,51.01
2019-05-25T06:35:06.930Z,49.35
2019-05-25T06:37:44.788Z,50.45
2019-05-25T06:40:23.458Z,49.38
2019-05-25T06:43:01.099Z,50.26
2019-05-25T06:45:40.564Z,49.41
2019-05-25T06:48:19.018Z,49.71
2019-05-25T06:50:56.231Z,50.54
2019-05-25T06:53:34.046Z,51.43
2019-05-25T06:56:11.525Z,50.32
2019-05-25T06:58:50.862Z,50.85
2019-05-25T07:01:28.467Z,50.78
2019-05-25T07:04:07.408Z,50.35
2019-05-25T07:06:45.501Z,50.58
2019-05-25T07:09:24.260Z,50.29
2019-05-25T07:12:01.887Z,49.89
2019-05-25T07:14:39.218Z,50.23
2019-05-25T07:17:18.190Z,50.26
2019-05-25T07:19:56.093Z,50.73
2019-05-25T07:22:34.114Z,51.07
2019-05-25T07:25:11.661Z,50.08
2019-05-25T07:27:58.890Z,51.35
2019-05-25T07:30:28.927Z,51.33
2019-05-25T07:33:06.665Z,50.51
2019-05-25T07:35:44.548Z,50.36
2019-05-25T07:38:23.099Z,50.39
2019-05-25T07:41:01.935Z,52.12
2019-05-25T07:43:39.245Z,51.79
2019-05-25T07:46:17.449Z,50.98
2019-05-25T07:48:55.849Z,51.26
2019-05-25T07:51:34.484Z,50.42
2019-05-25T07:54:13.051Z,50.81
2019-05-25T07:56:51.036Z,50.26
2019-05-25T07:59:28.666Z,50.78
2019-05-25T08:02:06.602Z,50.14
2019-05-25T08:04:43.918Z,51.01
2019-05-25T08:07:21.924Z,51.85
2019-05-25T08:09:59.639Z,52.86
2019-05-25T08:12:37.985Z,52.09
2019-05-25T08:15:15.482Z,51.04
2019-05-25T08:17:53.171Z,51.87
2019-05-25T08:20:31.689Z,52.09
2019-05-25T08:23:10.139Z,51.90
2019-05-25T08:25:47.579Z,52.44
2019-05-25T08:28:32.842Z,52.20
2019-05-25T08:31:04.331Z,52.74
2019-05-25T08:33:42.319Z,53.24
2019-05-25T08:36:19.357Z,53.34
2019-05-25T08:38:57.125Z,53.97
2019-05-25T08:41:34.742Z,54.22
2019-05-25T08:44:12.056Z,53.66
2019-05-25T08:46:49.726Z,53.55
2019-05-25T08:49:27.203Z,53.51
2019-05-25T08:52:05.197Z,53.55
2019-05-25T08:54:42.701Z,53.14
2019-05-25T08:57:20.199Z,53.83
2019-05-25T08:59:57.962Z,53.71
2019-05-25T09:02:35.362Z,54.36
2019-05-25T09:05:13.277Z,54.23
2019-05-25T09:07:50.192Z,53.88
2019-05-25T09:10:27.484Z,53.10
2019-05-25T09:13:04.789Z,53.65
2019-05-25T09:15:42.817Z,53.27
2019-05-25T09:18:20.110Z,53.58
2019-05-25T09:20:57.514Z,52.90
2019-05-25T09:23:35.428Z,52.67
2019-05-25T09:26:13.702Z,52.34
2019-05-25T09:29:03.540Z,52.41
2019-05-25T09:31:30.145Z,52.17
2019-05-25T09:34:07.471Z,52.11
2019-05-25T09:36:45.260Z,52.43
2019-05-25T09:39:22.967Z,52.23
2019-05-25T09:42:00.587Z,53.38
2019-05-25T09:44:37.788Z,52.78
2019-05-25T09:47:16.804Z,52.14
2019-05-25T09:49:54.052Z,51.88
2019-05-25T09:52:32.356Z,52.81
2019-05-25T09:55:12.019Z,53.95
2019-05-25T09:57:49.613Z,53.41
2019-05-25T10:00:27.498Z,54.39
2019-05-25T10:03:04.917Z,54.22
2019-05-25T10:05:42.007Z,54.30
2019-05-25T10:08:20.283Z,55.05
2019-05-25T10:10:57.636Z,55.33
2019-05-25T10:13:35.169Z,55.23
2019-05-25T10:16:12.139Z,55.33
2019-05-25T10:18:50.472Z,55.45
2019-05-25T10:21:28.239Z,55.30
2019-05-25T10:24:05.733Z,54.75
2019-05-25T10:26:44.331Z,55.38
2019-05-25T10:29:36.079Z,55.89
2019-05-25T10:32:01.726Z,56.38
2019-05-25T10:34:39.221Z,56.27
2019-05-25T10:37:16.362Z,56.50
2019-05-25T10:39:55.200Z,56.56
2019-05-25T10:42:32.592Z,57.83
2019-05-25T10:45:10.368Z,57.98
2019-05-25T10:47:48.525Z,58.27
2019-05-25T10:50:27.564Z,57.67
2019-05-25T10:53:05.145Z,59.07
2019-05-25T10:55:42.547Z,59.80
2019-05-25T10:58:21.908Z,60.02
2019-05-25T11:01:01.013Z,59.39
2019-05-25T11:03:38.391Z,60.11
2019-05-25T11:06:15.869Z,60.25
2019-05-25T11:08:53.130Z,60.25
2019-05-25T11:11:31.710Z,60.63
2019-05-25T11:14:09.016Z,62.29
2019-05-25T11:16:46.442Z,62.39
2019-05-25T11:19:25.129Z,62.85
2019-05-25T11:22:03.135Z,62.27
2019-05-25T11:24:40.670Z,63.03
2019-05-25T11:27:18.303Z,63.08
2019-05-25T11:30:08.491Z,63.56
2019-05-25T11:32:35.938Z,64.81
2019-05-25T11:35:13.569Z,65.31
2019-05-25T11:37:50.832Z,65.30
2019-05-25T11:40:28.234Z,65.01
2019-05-25T11:43:06.490Z,66.14
2019-05-25T11:45:45.455Z,66.08
2019-05-25T11:48:24.112Z,66.17
2019-05-25T11:51:00.677Z,65.30
2019-05-25T11:53:40.369Z,65.92
2019-05-25T11:56:18.057Z,65.86
2019-05-25T11:58:55.064Z,66.11
2019-05-25T12:01:33.792Z,66.09
2019-05-25T12:04:12.345Z,67.21
2019-05-25T12:06:49.554Z,68.16
2019-05-25T12:09:27.089Z,67.50
2019-05-25T12:12:04.480Z,67.67
2019-05-25T12:14:42.488Z,68.03
2019-05-25T12:17:20.142Z,68.25
2019-05-25T12:19:58.520Z,67.83
2019-05-25T12:22:36.378Z,67.74
2019-05-25T12:25:14.352Z,68.21
2019-05-25T12:27:51.632Z,67.44
2019-05-25T12:30:40.273Z,67.08
2019-05-25T12:33:09.449Z,67.01
2019-05-25T12:35:47.411Z,67.27
2019-05-25T12:38:25.431Z,66.84
2019-05-25T12:41:03.575Z,66.68
2019-05-25T12:43:41.302Z,66.83
2019-05-25T12:46:20.032Z,66.81
2019-05-25T12:48:57.755Z,66.98
2019-05-25T12:51:35.458Z,66.66
2019-05-25T12:54:13.137Z,67.10
2019-05-25T12:56:51.027Z,67.14
2019-05-25T12:59:28.462Z,66.62
2019-05-25T13:02:06.292Z,66.03
2019-05-25T13:04:44.943Z,66.25
2019-05-25T13:07:23.439Z,67.06
2019-05-25T13:10:01.115Z,67.61
2019-05-25T13:12:38.536Z,68.74
2019-05-25T13:15:15.746Z,69.45
2019-05-25T13:17:53.327Z,69.17
2019-05-25T13:20:30.521Z,68.28
2019-05-25T13:23:08.375Z,68.19
2019-05-25T13:25:45.876Z,69.00
2019-05-25T13:28:24.354Z,67.93
2019-05-25T13:31:11.250Z,67.55
2019-05-25T13:33:42.024Z,68.35
2019-05-25T13:36:21.097Z,68.63
2019-05-25T13:38:59.649Z,67.89
2019-05-25T13:41:37.204Z,67.35
2019-05-25T13:44:14.902Z,68.49
2019-05-25T13:46:52.513Z,69.86
2019-05-25T13:49:31.657Z,70.25
2019-05-25T13:52:09.132Z,70.08
2019-05-25T13:54:46.614Z,71.51
2019-05-25T13:57:23.949Z,71.56
2019-05-25T14:00:02.081Z,71.67
2019-05-25T14:02:41.014Z,72.06
2019-05-25T14:05:20.881Z,72.80
2019-05-25T14:07:59.997Z,72.04
2019-05-25T14:10:38.112Z,71.71
2019-05-25T14:13:15.507Z,71.40
2019-05-25T14:16:06.118Z,71.17
2019-05-25T14:18:32.632Z,71.07
2019-05-25T14:21:11.535Z,71.91
2019-05-25T14:23:48.777Z,71.31
2019-05-25T14:26:26.507Z,72.19
2019-05-25T14:29:03.469Z,72.42
2019-05-25T14:31:45.787Z,71.42
2019-05-25T14:34:20.697Z,71.14
2019-05-25T14:36:58.339Z,71.32
2019-05-25T14:39:37.241Z,69.90
2019-05-25T14:42:15.142Z,68.11
2019-05-25T14:44:52.146Z,68.45
2019-05-25T14:47:29.698Z,67.89
2019-05-25T14:50:07.815Z,66.59
2019-05-25T14:52:45.838Z,67.02
2019-05-25T14:55:23.127Z,67.05
2019-05-25T14:58:00.830Z,65.75
2019-05-25T15:00:39.287Z,65.21
2019-05-25T15:03:17.920Z,65.68
2019-05-25T15:05:55.203Z,66.18
2019-05-25T15:08:33.200Z,65.44
2019-05-25T15:11:11.984Z,65.79
2019-05-25T15:13:49.739Z,65.97
2019-05-25T15:16:27.287Z,65.22
2019-05-25T15:19:04.830Z,64.88
2019-05-25T15:21:44.267Z,64.41
2019-05-25T15:24:22.397Z,64.30
2019-05-25T15:26:59.500Z,64.86
2019-05-25T15:29:37.436Z,65.52
2019-05-25T15:32:19.871Z,65.03
2019-05-25T15:34:54.186Z,65.13
2019-05-25T15:37:31.845Z,65.74
2019-05-25T15:40:10.191Z,65.85
2019-05-25T15:42:49.272Z,66.01
2019-05-25T15:45:27.851Z,65.23
2019-05-25T15:48:05.008Z,65.68
2019-05-25T15:50:42.837Z,64.71
2019-05-25T15:53:20.301Z,64.51
2019-05-25T15:55:58.285Z,64.18
2019-05-25T15:58:35.303Z,65.11
2019-05-25T16:01:13.959Z,64.32
2019-05-25T16:03:53.568Z,63.84
2019-05-25T16:06:32.354Z,63.62
2019-05-25T16:09:10.162Z,64.03
2019-05-25T16:11:50.786Z,63.98
2019-05-25T16:14:29.226Z,63.49
2019-05-25T16:17:06.929Z,63.44
2019-05-25T16:19:44.274Z,63.48
2019-05-25T16:22:21.893Z,63.47
2019-05-25T16:25:00.284Z,63.93
2019-05-25T16:27:38.396Z,63.50
2019-05-25T16:30:15.960Z,64.16
2019-05-25T16:33:11.618Z,64.48
2019-05-25T16:35:32.907Z,64.66
2019-05-25T16:38:11.534Z,65.93
2019-05-25T16:40:48.872Z,65.55
2019-05-25T16:43:26.596Z,64.07
2019-05-25T16:46:05.550Z,63.92
2019-05-25T16:48:44.134Z,64.21
2019-05-25T16:51:21.921Z,63.87
2019-05-25T16:53:59.287Z,63.19
2019-05-25T16:56:37.251Z,62.94
2019-05-25T16:59:15.110Z,64.36
2019-05-25T17:01:52.311Z,64.46
2019-05-25T17:04:29.665Z,63.38
2019-05-25T17:07:07.416Z,63.58
2019-05-25T17:09:45.159Z,64.97
2019-05-25T17:12:22.445Z,64.41
2019-05-25T17:15:00.801Z,64.31
2019-05-25T17:17:40.070Z,64.40
2019-05-25T17:20:17.955Z,64.46
2019-05-25T17:22:55.303Z,64.01
2019-05-25T17:25:32.776Z,63.79
2019-05-25T17:28:10.113Z,64.98
2019-05-25T17:30:49.727Z,64.57
2019-05-25T17:33:42.569Z,64.60
2019-05-25T17:36:06.206Z,64.72
2019-05-25T17:38:44.747Z,65.06
2019-05-25T17:41:23.640Z,63.94
2019-05-25T17:44:00.941Z,63.79
2019-05-25T17:46:38.426Z,63.84
2019-05-25T17:49:16.996Z,63.77
2019-05-25T17:51:55.539Z,63.60
2019-05-25T17:54:32.852Z,62.67
2019-05-25T17:57:10.784Z,62.97
2019-05-25T17:59:47.691Z,64.60
2019-05-25T18:02:25.819Z,63.29
2019-05-25T18:05:03.171Z,63.20
2019-05-25T18:07:40.341Z,64.09
2019-05-25T18:10:17.601Z,64.90
2019-05-25T18:12:55.539Z,63.96
2019-05-25T18:15:32.833Z,64.36
2019-05-25T18:18:11.627Z,65.14
2019-05-25T18:20:50.314Z,64.61
2019-05-25T18:23:28.182Z,64.44
2019-05-25T18:26:05.268Z,64.43
2019-05-25T18:28:42.707Z,65.06
2019-05-25T18:31:20.016Z,64.28
2019-05-25T18:33:57.854Z,64.13
2019-05-25T18:36:35.380Z,64.13
2019-05-25T18:39:12.841Z,63.62
2019-05-25T18:41:50.388Z,63.91
2019-05-25T18:44:28.938Z,64.15
2019-05-25T18:47:06.627Z,64.71
2019-05-25T18:49:44.034Z,65.45
2019-05-25T18:52:26.662Z,64.57
2019-05-25T18:55:04.935Z,64.24
2019-05-25T18:57:42.613Z,65.82
2019-05-25T19:00:20.093Z,65.31
2019-05-25T19:03:14.285Z,65.65
2019-05-25T19:05:52.241Z,65.55
2019-05-25T19:08:29.716Z,65.05
2019-05-25T19:11:07.742Z,64.86
2019-05-25T19:13:45.200Z,64.69
2019-05-25T19:16:23.227Z,64.01
2019-05-25T19:19:00.512Z,65.09
2019-05-25T19:21:38.114Z,64.91
2019-05-25T19:24:19.074Z,65.20
2019-05-25T19:26:57.974Z,64.45
2019-05-25T19:29:35.460Z,65.56
2019-05-25T19:32:13.070Z,65.46
2019-05-25T19:34:59.036Z,64.06
2019-05-25T19:37:30.082Z,63.17
2019-05-25T19:40:09.048Z,63.00
2019-05-25T19:42:50.340Z,63.14
2019-05-25T19:45:27.824Z,62.49
2019-05-25T19:48:06.074Z,62.39
2019-05-25T19:50:43.457Z,62.89
2019-05-25T19:53:21.410Z,62.11
2019-05-25T19:55:59.623Z,61.88
2019-05-25T19:58:37.226Z,61.65
2019-05-25T20:01:14.774Z,61.60
2019-05-25T20:03:52.694Z,62.19
2019-05-25T20:06:29.839Z,61.58
2019-05-25T20:09:09.073Z,61.70
2019-05-25T20:11:46.518Z,61.73
2019-05-25T20:14:23.853Z,61.91
2019-05-25T20:17:01.133Z,61.06
2019-05-25T20:19:38.507Z,61.20
2019-05-25T20:22:16.131Z,61.69
2019-05-25T20:24:54.125Z,61.64
2019-05-25T20:27:32.549Z,61.27
2019-05-25T20:30:10.469Z,60.96
2019-05-25T20:32:47.709Z,61.30
2019-05-25T20:35:32.949Z,61.17
2019-05-25T20:38:03.890Z,60.46
2019-05-25T20:40:42.072Z,60.35
2019-05-25T20:43:19.384Z,61.11
2019-05-25T20:45:56.860Z,61.25
2019-05-25T20:48:34.219Z,60.77
2019-05-25T20:51:12.421Z,60.90
2019-05-25T20:53:50.144Z,62.22
2019-05-25T20:56:27.481Z,62.44
2019-05-25T20:59:05.886Z,61.78
2019-05-25T21:01:45.374Z,61.24
2019-05-25T21:04:22.847Z,62.46
2019-05-25T21:07:00.367Z,62.00
2019-05-25T21:09:37.611Z,61.24
2019-05-25T21:12:15.881Z,61.37
2019-05-25T21:14:53.358Z,62.13
2019-05-25T21:17:30.861Z,61.70
2019-05-25T21:20:08.249Z,61.67
2019-05-25T21:22:51.079Z,61.37
2019-05-25T21:25:26.867Z,61.91
2019-05-25T21:28:04.388Z,61.35
2019-05-25T21:30:41.897Z,60.96
2019-05-25T21:33:20.064Z,60.94
2019-05-25T21:36:07.650Z,61.53
2019-05-25T21:38:37.484Z,61.39
2019-05-25T21:41:15.037Z,61.31
2019-05-25T21:43:53.367Z,61.99
2019-05-25T21:46:30.718Z,61.78
2019-05-25T21:49:08.390Z,61.83
2019-05-25T21:51:45.786Z,61.40
2019-05-25T21:54:23.520Z,61.03
2019-05-25T21:57:00.866Z,61.94
2019-05-25T21:59:38.072Z,61.71
2019-05-25T22:02:16.225Z,62.60
2019-05-25T22:04:54.892Z,63.03
2019-05-25T22:07:32.450Z,63.59
2019-05-25T22:10:10.458Z,63.88
2019-05-25T22:12:48.047Z,63.83
2019-05-25T22:15:25.816Z,62.98
2019-05-25T22:18:06.179Z,63.35
2019-05-25T22:20:43.650Z,63.63
2019-05-25T22:23:20.562Z,63.15
2019-05-25T22:25:59.161Z,62.81
2019-05-25T22:28:44.780Z,62.30
2019-05-25T22:31:16.674Z,62.29
2019-05-25T22:33:54.983Z,62.43
2019-05-25T22:36:40.349Z,62.80
2019-05-25T22:39:12.215Z,62.38
2019-05-25T22:41:49.211Z,62.13
2019-05-25T22:44:26.928Z,62.11
2019-05-25T22:47:06.446Z,62.32
2019-05-25T22:49:43.183Z,62.41
2019-05-25T22:52:20.180Z,62.05
2019-05-25T22:54:57.988Z,61.72
2019-05-25T22:57:35.660Z,61.69
2019-05-25T23:00:14.280Z,62.37
2019-05-25T23:02:52.132Z,62.79
2019-05-25T23:05:30.408Z,61.92
2019-05-25T23:08:08.310Z,62.27
2019-05-25T23:10:45.573Z,62.15
2019-05-25T23:13:22.842Z,61.81
2019-05-25T23:16:00.097Z,61.54
2019-05-25T23:18:38.652Z,61.70
2019-05-25T23:21:16.252Z,61.05
2019-05-25T23:23:53.820Z,60.68
2019-05-25T23:26:31.329Z,60.82
2019-05-25T23:29:09.738Z,60.97
2019-05-25T23:31:46.800Z,61.17
2019-05-25T23:34:24.582Z,61.44
2019-05-25T23:37:14.080Z,61.00
2019-05-25T23:39:41.377Z,61.08
2019-05-25T23:42:18.342Z,62.18
2019-05-25T23:44:55.559Z,62.17
2019-05-25T23:47:33.240Z,60.82
2019-05-25T23:50:13.326Z,60.81
2019-05-25T23:52:50.675Z,60.73
2019-05-25T23:55:29.439Z,60.45
2019-05-25T23:58:06.680Z,59.95
